createdAt,value
2022-10-05T00:01:46.034Z,50.66
2022-10-05T00:04:16.572Z,50.89
2022-10-05T00:06:45.519Z,50.85
2022-10-05T00:09:17.922Z,50.89
2022-10-05T00:11:46.330Z,50.71
2022-10-05T00:14:16.886Z,50.38
2022-10-05T00:16:46.986Z,50.53
2022-10-05T00:19:21.421Z,50.86
2022-10-05T00:21:49.758Z,50.61
2022-10-05T00:24:20.581Z,50.68
2022-10-05T00:26:55.407Z,50.82
2022-10-05T00:29:26.043Z,50.42
2022-10-05T00:31:55.886Z,50.78
2022-10-05T00:34:26.682Z,50.60
2022-10-05T00:36:54.923Z,50.98
2022-10-05T00:39:23.185Z,50.72
2022-10-05T00:42:00.581Z,50.49
2022-10-05T00:44:36.550Z,50.67
2022-10-05T00:47:16.035Z,50.78
2022-10-05T00:49:55.506Z,50.64
2022-10-05T00:52:26.495Z,50.73
2022-10-05T00:54:58.798Z,50.64
2022-10-05T00:57:32.816Z,50.60
2022-10-05T01:00:05.366Z,50.49
2022-10-05T01:02:41.316Z,50.81
2022-10-05T01:05:12.368Z,50.88
2022-10-05T01:07:43.797Z,50.82
2022-10-05T01:10:15.940Z,51.02
2022-10-05T01:12:48.622Z,50.62
2022-10-05T01:15:18.149Z,50.72
2022-10-05T01:17:49.866Z,50.72
2022-10-05T01:20:29.209Z,50.70
2022-10-05T01:23:21.154Z,50.29
2022-10-05T01:25:54.272Z,50.87
2022-10-05T01:28:27.545Z,50.38
2022-10-05T01:31:00.673Z,50.63
2022-10-05T01:33:31.964Z,50.55
2022-10-05T01:36:03.021Z,50.81
2022-10-05T01:38:37.584Z,50.43
2022-10-05T01:41:10.071Z,50.57
2022-10-05T01:43:42.446Z,50.28
2022-10-05T01:46:16.149Z,50.53
2022-10-05T01:48:49.216Z,50.37
2022-10-05T01:51:20.475Z,50.42
2022-10-05T01:53:55.010Z,50.33
2022-10-05T01:56:26.646Z,50.84
2022-10-05T01:59:00.514Z,50.75
2022-10-05T02:01:31.652Z,50.71
2022-10-05T02:04:04.245Z,50.58
2022-10-05T02:06:33.959Z,50.48
2022-10-05T02:09:04.189Z,50.49
2022-10-05T02:11:32.394Z,50.49
2022-10-05T02:14:03.130Z,50.57
2022-10-05T02:16:34.329Z,50.58
2022-10-05T02:19:04.197Z,50.63
2022-10-05T02:21:32.415Z,50.30
2022-10-05T02:24:02.677Z,50.51
2022-10-05T02:26:30.992Z,50.72
2022-10-05T02:29:00.429Z,50.90
2022-10-05T02:31:33.532Z,50.79
2022-10-05T02:34:27.497Z,50.31
2022-10-05T02:37:13.850Z,50.46
2022-10-05T02:39:49.014Z,50.07
2022-10-05T02:42:20.522Z,50.69
2022-10-05T02:44:52.579Z,50.62
2022-10-05T02:47:25.060Z,50.56
2022-10-05T02:49:55.145Z,50.64
2022-10-05T02:52:26.634Z,50.49
2022-10-05T02:55:00.172Z,50.51
2022-10-05T02:57:29.918Z,50.40
2022-10-05T03:00:01.761Z,50.29
2022-10-05T03:02:35.110Z,50.45
2022-10-05T03:05:07.874Z,50.29
2022-10-05T03:07:40.235Z,50.32
2022-10-05T03:10:11.138Z,50.74
2022-10-05T03:12:46.656Z,50.25
2022-10-05T03:15:21.801Z,50.38
2022-10-05T03:17:56.323Z,50.34
2022-10-05T03:20:31.551Z,50.31
2022-10-05T03:23:00.866Z,50.33
2022-10-05T03:25:43.903Z,50.63
2022-10-05T03:28:15.948Z,50.71
2022-10-05T03:30:46.958Z,50.55
2022-10-05T03:33:20.502Z,50.19
2022-10-05T03:35:52.690Z,50.68
2022-10-05T03:38:24.898Z,50.46
2022-10-05T03:40:55.511Z,50.37
2022-10-05T03:43:35.717Z,50.54
2022-10-05T03:46:05.854Z,50.55
2022-10-05T03:48:38.873Z,50.59
2022-10-05T03:51:09.329Z,50.48
2022-10-05T03:53:40.955Z,50.54
2022-10-05T03:56:14.908Z,50.51
2022-10-05T03:58:46.433Z,50.27
2022-10-05T04:01:17.130Z,50.45
2022-10-05T04:03:48.484Z,50.19
2022-10-05T04:06:18.290Z,50.63
2022-10-05T04:08:48.756Z,50.39
2022-10-05T04:11:21.857Z,50.20
2022-10-05T04:13:51.870Z,50.39
2022-10-05T04:16:22.584Z,50.39
2022-10-05T04:18:56.497Z,50.59
2022-10-05T04:21:26.358Z,50.35
2022-10-05T04:23:58.986Z,50.25
2022-10-05T04:26:33.467Z,50.53
2022-10-05T04:29:06.252Z,50.67
2022-10-05T04:31:44.970Z,50.37
2022-10-05T04:34:18.795Z,50.22
2022-10-05T04:36:49.643Z,50.52
2022-10-05T04:39:22.031Z,50.60
2022-10-05T04:41:57.302Z,50.15
2022-10-05T04:44:37.244Z,50.45
2022-10-05T04:47:31.181Z,50.51
2022-10-05T04:50:14.317Z,50.40
2022-10-05T04:53:01.742Z,50.28
2022-10-05T04:55:32.667Z,50.44
2022-10-05T04:58:05.218Z,50.55
2022-10-05T05:00:35.352Z,50.26
2022-10-05T05:03:30.533Z,50.32
2022-10-05T05:06:16.806Z,50.30
2022-10-05T05:09:25.700Z,49.85
2022-10-05T05:12:09.235Z,50.20
2022-10-05T05:14:45.775Z,50.15
2022-10-05T05:17:22.403Z,50.02
2022-10-05T05:19:54.412Z,49.59
2022-10-05T05:22:27.092Z,49.85
2022-10-05T05:25:04.826Z,50.13
2022-10-05T05:27:40.726Z,50.03
2022-10-05T05:30:16.999Z,49.75
2022-10-05T05:32:50.064Z,49.78
2022-10-05T05:36:06.019Z,49.79
2022-10-05T05:38:36.810Z,49.44
2022-10-05T05:41:10.344Z,49.42
2022-10-05T05:44:02.906Z,49.82
2022-10-05T05:47:01.598Z,49.27
2022-10-05T05:49:29.275Z,49.63
2022-10-05T05:51:59.329Z,49.73
2022-10-05T05:54:32.859Z,49.54
2022-10-05T05:57:09.113Z,49.31
2022-10-05T05:59:55.942Z,49.52
2022-10-05T06:02:27.143Z,49.52
2022-10-05T06:04:58.012Z,49.52
2022-10-05T06:07:30.746Z,49.39
2022-10-05T06:10:07.118Z,49.18
2022-10-05T06:12:46.853Z,49.23
2022-10-05T06:15:29.612Z,49.58
2022-10-05T06:17:58.965Z,49.07
2022-10-05T06:20:29.766Z,49.30
2022-10-05T06:23:00.195Z,49.38
2022-10-05T06:25:33.318Z,49.09
2022-10-05T06:28:05.263Z,48.89
2022-10-05T06:30:42.756Z,49.37
2022-10-05T06:33:18.045Z,49.30
2022-10-05T06:35:57.490Z,48.92
2022-10-05T06:38:39.765Z,49.06
2022-10-05T06:41:14.786Z,49.20
2022-10-05T06:43:50.335Z,49.09
2022-10-05T06:46:38.903Z,49.00
2022-10-05T06:49:38.290Z,48.70
2022-10-05T06:52:27.782Z,48.77
2022-10-05T06:55:04.173Z,48.88
2022-10-05T06:57:59.331Z,48.67
2022-10-05T07:00:30.246Z,48.77
2022-10-05T07:03:02.063Z,46.12
2022-10-05T07:05:47.913Z,45.97
2022-10-05T07:08:18.826Z,46.53
2022-10-05T07:10:55.230Z,47.21
2022-10-05T07:13:44.229Z,46.98
2022-10-05T07:16:14.982Z,46.60
2022-10-05T07:19:04.871Z,46.16
2022-10-05T07:21:35.829Z,46.38
2022-10-05T07:24:07.582Z,46.13
2022-10-05T07:26:39.186Z,46.60
2022-10-05T07:29:33.915Z,46.42
2022-10-05T07:32:12.170Z,43.59
2022-10-05T07:34:47.647Z,44.14
2022-10-05T07:37:36.170Z,44.15
2022-10-05T07:40:10.361Z,45.17
2022-10-05T07:42:52.130Z,45.37
2022-10-05T07:45:29.522Z,45.14
2022-10-05T07:47:59.449Z,45.45
2022-10-05T07:50:30.443Z,45.50
2022-10-05T07:53:00.676Z,45.31
2022-10-05T07:55:33.258Z,45.72
2022-10-05T07:58:07.267Z,45.29
2022-10-05T08:00:58.222Z,44.25
2022-10-05T08:03:31.632Z,42.86
2022-10-05T08:06:00.307Z,42.83
2022-10-05T08:08:31.189Z,42.72
2022-10-05T08:11:01.805Z,42.84
2022-10-05T08:13:32.408Z,42.92
2022-10-05T08:16:03.640Z,43.23
2022-10-05T08:18:41.447Z,43.22
2022-10-05T08:21:12.175Z,42.93
2022-10-05T08:23:43.460Z,42.97
2022-10-05T08:26:17.809Z,43.07
2022-10-05T08:28:49.274Z,42.91
2022-10-05T08:31:21.968Z,43.73
2022-10-05T08:33:56.248Z,43.87
2022-10-05T08:36:30.519Z,43.84
2022-10-05T08:39:04.370Z,44.33
2022-10-05T08:42:01.199Z,43.75
2022-10-05T08:45:02.067Z,43.83
2022-10-05T08:48:13.336Z,44.19
2022-10-05T08:51:04.359Z,44.08
2022-10-05T08:53:47.152Z,43.84
2022-10-05T08:56:30.562Z,44.05
2022-10-05T08:59:16.869Z,44.06
2022-10-05T09:01:55.656Z,44.03
2022-10-05T09:04:36.147Z,44.04
2022-10-05T09:07:15.630Z,44.66
2022-10-05T09:10:06.321Z,44.46
2022-10-05T09:12:55.006Z,43.82
2022-10-05T09:15:36.063Z,43.25
2022-10-05T09:18:27.615Z,43.75
2022-10-05T09:20:59.251Z,43.98
2022-10-05T09:23:38.386Z,43.71
2022-10-05T09:26:10.040Z,44.17
2022-10-05T09:28:43.474Z,44.09
2022-10-05T09:31:36.907Z,43.68
2022-10-05T09:34:20.174Z,43.67
2022-10-05T09:40:20.243Z,44.28
2022-10-05T09:43:23.923Z,44.10
2022-10-05T09:46:31.518Z,44.21
2022-10-05T09:49:28.734Z,44.14
2022-10-05T09:52:19.177Z,43.89
2022-10-05T09:55:20.238Z,43.88
2022-10-05T09:58:14.459Z,43.72
2022-10-05T10:01:03.636Z,44.04
2022-10-05T10:04:01.519Z,44.04
2022-10-05T10:06:41.872Z,44.08
2022-10-05T10:09:25.543Z,43.99
2022-10-05T10:12:05.787Z,44.14
2022-10-05T10:15:19.199Z,43.74
2022-10-05T10:18:23.703Z,43.86
2022-10-05T10:21:14.546Z,44.05
2022-10-05T10:24:00.464Z,44.28
2022-10-05T10:27:01.779Z,44.10
2022-10-05T10:29:46.087Z,44.39
2022-10-05T10:32:21.558Z,44.32
2022-10-05T10:35:32.803Z,44.31
2022-10-05T10:38:33.535Z,44.59
2022-10-05T10:41:44.425Z,44.81
2022-10-05T10:45:03.452Z,44.79
2022-10-05T10:48:01.489Z,44.39
2022-10-05T10:50:59.767Z,44.55
2022-10-05T10:53:38.222Z,44.75
2022-10-05T10:56:30.892Z,44.83
2022-10-05T10:59:41.744Z,44.83
2022-10-05T11:02:44.105Z,45.17
2022-10-05T11:05:25.678Z,45.01
2022-10-05T11:08:00.541Z,45.01
2022-10-05T11:11:00.015Z,45.50
2022-10-05T11:13:38.367Z,45.26
2022-10-05T11:16:34.275Z,45.24
2022-10-05T11:19:52.615Z,45.19
2022-10-05T11:22:52.544Z,45.43
2022-10-05T11:25:53.463Z,45.65
2022-10-05T11:28:31.762Z,45.71
2022-10-05T11:31:39.908Z,45.78
2022-10-05T11:34:45.701Z,45.66
2022-10-05T11:37:50.475Z,45.32
2022-10-05T11:40:34.655Z,45.81
2022-10-05T11:43:39.458Z,46.14
2022-10-05T11:46:12.482Z,45.91
2022-10-05T11:49:01.738Z,45.92
2022-10-05T11:52:02.727Z,45.91
2022-10-05T11:55:11.315Z,45.69
2022-10-05T11:57:44.174Z,45.88
2022-10-05T12:00:15.514Z,45.86
2022-10-05T12:03:22.641Z,46.01
2022-10-05T12:05:58.254Z,46.34
2022-10-05T12:08:30.980Z,45.81
2022-10-05T12:11:07.960Z,46.00
2022-10-05T12:13:40.804Z,46.77
2022-10-05T12:16:11.766Z,46.49
2022-10-05T12:18:50.008Z,46.74
2022-10-05T12:21:24.323Z,46.23
2022-10-05T12:23:55.113Z,46.96
2022-10-05T12:26:26.457Z,46.81
2022-10-05T12:28:57.133Z,46.67
2022-10-05T12:31:31.035Z,46.04
2022-10-05T12:34:24.607Z,46.92
2022-10-05T12:40:06.393Z,45.62
2022-10-05T12:42:41.601Z,45.76
2022-10-05T12:45:17.902Z,45.77
2022-10-05T12:47:58.554Z,45.70
2022-10-05T12:50:29.174Z,45.87
2022-10-05T12:53:15.931Z,46.17
2022-10-05T12:55:48.023Z,46.25
2022-10-05T12:58:35.934Z,46.12
2022-10-05T13:01:07.828Z,45.48
2022-10-05T13:03:38.507Z,45.83
2022-10-05T13:06:11.757Z,45.47
2022-10-05T13:08:42.901Z,45.66
2022-10-05T13:11:16.296Z,45.60
2022-10-05T13:13:50.074Z,45.58
2022-10-05T13:16:24.460Z,46.06
2022-10-05T13:19:01.400Z,45.86
2022-10-05T13:21:32.458Z,45.75
2022-10-05T13:24:02.765Z,45.94
2022-10-05T13:26:40.805Z,45.69
2022-10-05T13:29:16.523Z,46.32
2022-10-05T13:31:46.961Z,45.97
2022-10-05T13:34:22.414Z,46.29
2022-10-05T13:36:57.903Z,46.40
2022-10-05T13:39:32.059Z,46.46
2022-10-05T13:42:03.073Z,46.41
2022-10-05T13:44:35.335Z,46.83
2022-10-05T13:47:06.310Z,46.79
2022-10-05T13:49:40.639Z,46.66
2022-10-05T13:52:18.118Z,46.23
2022-10-05T13:54:49.150Z,46.68
2022-10-05T13:57:23.460Z,46.88
2022-10-05T13:59:55.430Z,46.65
2022-10-05T14:02:29.102Z,46.74
2022-10-05T14:05:01.556Z,46.95
2022-10-05T14:07:34.410Z,47.14
2022-10-05T14:10:04.670Z,46.60
2022-10-05T14:12:40.210Z,47.07
2022-10-05T14:15:20.988Z,46.97
2022-10-05T14:17:51.544Z,47.14
2022-10-05T14:20:23.167Z,47.53
2022-10-05T14:22:55.769Z,47.31
2022-10-05T14:25:24.375Z,47.32
2022-10-05T14:28:02.037Z,47.41
2022-10-05T14:30:32.559Z,47.17
2022-10-05T14:33:10.195Z,47.75
2022-10-05T14:35:49.171Z,47.41
2022-10-05T14:38:19.859Z,47.82
2022-10-05T14:40:48.182Z,47.68
2022-10-05T14:43:20.316Z,47.90
2022-10-05T14:46:01.456Z,47.73
2022-10-05T14:48:30.919Z,47.81
2022-10-05T14:51:03.418Z,47.92
2022-10-05T14:53:39.619Z,47.80
2022-10-05T14:56:22.074Z,47.90
2022-10-05T14:59:08.979Z,47.75
2022-10-05T15:01:39.366Z,47.95
2022-10-05T15:04:17.009Z,48.02
2022-10-05T15:06:53.298Z,48.08
2022-10-05T15:09:35.035Z,48.03
2022-10-05T15:12:03.757Z,48.04
2022-10-05T15:14:33.132Z,47.57
2022-10-05T15:17:04.530Z,47.67
2022-10-05T15:19:40.230Z,47.44
2022-10-05T15:22:18.885Z,47.62
2022-10-05T15:24:53.343Z,47.54
2022-10-05T15:27:25.396Z,47.92
2022-10-05T15:30:04.187Z,47.99
2022-10-05T15:32:46.208Z,47.92
2022-10-05T15:35:36.899Z,47.71
2022-10-05T15:38:17.905Z,47.99
2022-10-05T15:40:47.986Z,48.24
2022-10-05T15:43:18.935Z,47.61
2022-10-05T15:45:53.912Z,47.94
2022-10-05T15:48:29.256Z,47.76
2022-10-05T15:51:01.732Z,48.11
2022-10-05T15:53:33.485Z,48.31
2022-10-05T15:56:03.927Z,48.05
2022-10-05T15:58:43.607Z,48.15
2022-10-05T16:01:12.624Z,48.16
2022-10-05T16:03:47.501Z,48.82
2022-10-05T16:06:48.683Z,48.36
2022-10-05T16:09:24.733Z,48.19
2022-10-05T16:11:59.226Z,48.56
2022-10-05T16:14:34.611Z,48.42
2022-10-05T16:17:13.762Z,48.44
2022-10-05T16:19:47.088Z,48.61
2022-10-05T16:22:20.866Z,48.41
2022-10-05T16:25:02.790Z,48.15
2022-10-05T16:27:36.619Z,48.48
2022-10-05T16:30:06.182Z,48.57
2022-10-05T16:32:36.924Z,48.83
2022-10-05T16:35:14.697Z,48.61
2022-10-05T16:37:47.359Z,48.72
2022-10-05T16:40:20.708Z,48.98
2022-10-05T16:42:55.580Z,48.81
2022-10-05T16:45:45.136Z,49.05
2022-10-05T16:48:16.807Z,48.82
2022-10-05T16:50:51.638Z,48.75
2022-10-05T16:53:22.290Z,48.95
2022-10-05T16:55:53.083Z,48.80
2022-10-05T16:58:24.023Z,48.83
2022-10-05T17:01:06.635Z,49.01
2022-10-05T17:03:41.649Z,48.71
2022-10-05T17:06:38.492Z,48.68
2022-10-05T17:09:27.592Z,48.89
2022-10-05T17:12:03.315Z,49.07
2022-10-05T17:14:42.106Z,48.99
2022-10-05T17:17:24.586Z,49.11
2022-10-05T17:19:59.271Z,49.16
2022-10-05T17:22:32.307Z,49.17
2022-10-05T17:25:05.204Z,49.38
2022-10-05T17:27:36.073Z,48.84
2022-10-05T17:30:22.779Z,48.41
2022-10-05T17:33:04.725Z,48.83
2022-10-05T17:36:13.721Z,48.67
2022-10-05T17:39:14.818Z,49.17
2022-10-05T17:41:43.626Z,49.31
2022-10-05T17:44:32.973Z,49.25
2022-10-05T17:47:01.576Z,48.98
2022-10-05T17:50:14.353Z,49.06
2022-10-05T17:53:02.393Z,49.10
2022-10-05T17:55:50.917Z,48.74
2022-10-05T17:59:01.835Z,49.03
2022-10-05T18:01:32.833Z,49.05
2022-10-05T18:04:26.665Z,49.06
2022-10-05T18:07:02.691Z,49.02
2022-10-05T18:09:33.357Z,48.99
2022-10-05T18:12:12.431Z,49.16
2022-10-05T18:15:00.120Z,49.31
2022-10-05T18:17:41.262Z,48.96
2022-10-05T18:20:31.662Z,49.31
2022-10-05T18:23:29.604Z,48.87
2022-10-05T18:26:03.251Z,49.32
2022-10-05T18:28:40.908Z,49.19
2022-10-05T18:31:17.447Z,49.27
2022-10-05T18:34:13.556Z,49.41
2022-10-05T18:36:52.784Z,49.47
2022-10-05T18:39:29.788Z,49.21
2022-10-05T18:42:03.648Z,49.39
2022-10-05T18:44:37.810Z,49.28
2022-10-05T18:47:10.516Z,49.19
2022-10-05T18:49:47.351Z,49.12
2022-10-05T18:52:19.358Z,49.48
2022-10-05T18:54:55.030Z,48.82
2022-10-05T18:57:37.167Z,49.03
2022-10-05T19:00:11.307Z,49.08
2022-10-05T19:02:43.182Z,48.94
2022-10-05T19:05:45.813Z,48.95
2022-10-05T19:08:10.719Z,48.96
2022-10-05T19:10:42.770Z,49.12
2022-10-05T19:13:17.526Z,49.08
2022-10-05T19:15:50.947Z,48.91
2022-10-05T19:18:31.996Z,49.11
2022-10-05T19:21:04.063Z,49.22
2022-10-05T19:23:48.325Z,48.96
2022-10-05T19:26:18.129Z,49.01
2022-10-05T19:28:53.331Z,49.68
2022-10-05T19:31:29.729Z,49.95
2022-10-05T19:34:04.332Z,49.71
2022-10-05T19:36:41.535Z,49.89
2022-10-05T19:39:12.190Z,49.70
2022-10-05T19:41:54.919Z,50.02
2022-10-05T19:44:30.887Z,50.09
2022-10-05T19:47:02.766Z,50.42
2022-10-05T19:49:49.204Z,50.30
2022-10-05T19:52:22.834Z,50.42
2022-10-05T19:55:02.292Z,50.71
2022-10-05T19:57:30.967Z,50.74
2022-10-05T20:00:02.775Z,50.51
2022-10-05T20:02:38.659Z,50.56
2022-10-05T20:05:13.720Z,50.59
2022-10-05T20:07:43.466Z,50.37
2022-10-05T20:10:29.264Z,50.78
2022-10-05T20:12:58.524Z,50.72
2022-10-05T20:15:45.229Z,50.41
2022-10-05T20:19:06.198Z,50.53
2022-10-05T20:21:49.009Z,51.19
2022-10-05T20:24:18.463Z,50.91
2022-10-05T20:27:05.328Z,51.01
2022-10-05T20:29:35.700Z,50.71
2022-10-05T20:32:08.324Z,50.94
2022-10-05T20:34:41.479Z,50.92
2022-10-05T20:37:10.706Z,51.13
2022-10-05T20:39:39.202Z,50.95
2022-10-05T20:42:07.981Z,51.23
2022-10-05T20:44:36.854Z,50.95
2022-10-05T20:47:05.741Z,51.00
2022-10-05T20:49:35.355Z,51.00
2022-10-05T20:52:05.115Z,50.40
2022-10-05T20:54:33.742Z,50.89
2022-10-05T20:57:02.495Z,51.24
2022-10-05T20:59:30.833Z,50.78
2022-10-05T21:01:59.422Z,51.20
2022-10-05T21:04:36.083Z,50.95
2022-10-05T21:07:10.471Z,50.99
2022-10-05T21:09:43.653Z,50.94
2022-10-05T21:12:12.147Z,51.22
2022-10-05T21:14:40.735Z,50.63
2022-10-05T21:17:09.710Z,51.40
2022-10-05T21:19:39.759Z,50.89
2022-10-05T21:22:09.944Z,51.13
2022-10-05T21:24:38.696Z,51.13
2022-10-05T21:27:06.996Z,51.16
2022-10-05T21:29:36.606Z,50.94
2022-10-05T21:32:08.662Z,50.81
2022-10-05T21:34:37.071Z,51.03
2022-10-05T21:37:05.467Z,51.09
2022-10-05T21:39:36.830Z,50.92
2022-10-05T21:42:05.617Z,51.31
2022-10-05T21:44:34.009Z,51.24
2022-10-05T21:47:02.531Z,51.23
2022-10-05T21:49:31.317Z,50.98
2022-10-05T21:52:00.175Z,51.18
2022-10-05T21:54:28.768Z,51.34
2022-10-05T21:56:58.554Z,51.45
2022-10-05T21:59:29.098Z,51.33
2022-10-05T22:01:57.772Z,51.02
2022-10-05T22:04:26.392Z,51.52
2022-10-05T22:06:54.975Z,51.36
2022-10-05T22:09:23.666Z,51.33
2022-10-05T22:11:52.231Z,51.36
2022-10-05T22:14:22.027Z,51.41
2022-10-05T22:16:50.466Z,51.20
2022-10-05T22:19:20.227Z,51.18
2022-10-05T22:21:49.536Z,51.77
2022-10-05T22:24:17.880Z,51.58
2022-10-05T22:26:46.688Z,51.64
2022-10-05T22:29:16.077Z,51.24
2022-10-05T22:31:48.490Z,51.18
2022-10-05T22:34:16.991Z,51.61
2022-10-05T22:36:45.978Z,51.37
2022-10-05T22:39:14.480Z,51.32
2022-10-05T22:41:42.891Z,51.60
2022-10-05T22:44:11.207Z,51.37
2022-10-05T22:46:39.804Z,51.29
2022-10-05T22:49:09.543Z,51.17
2022-10-05T22:51:37.860Z,51.42
2022-10-05T22:54:06.523Z,51.61
2022-10-05T22:56:35.042Z,51.61
2022-10-05T22:59:03.286Z,51.26
2022-10-05T23:01:31.661Z,51.43
2022-10-05T23:03:59.972Z,51.26
2022-10-05T23:06:29.743Z,51.61
2022-10-05T23:08:58.278Z,51.44
2022-10-05T23:11:27.431Z,51.41
2022-10-05T23:13:57.058Z,51.46
2022-10-05T23:16:26.956Z,51.65
2022-10-05T23:18:55.607Z,51.82
2022-10-05T23:21:25.127Z,51.79
2022-10-05T23:23:54.825Z,51.44
2022-10-05T23:26:23.741Z,51.43
2022-10-05T23:28:52.183Z,51.56
2022-10-05T23:31:21.347Z,51.52
2022-10-05T23:33:49.679Z,51.74
2022-10-05T23:36:18.945Z,51.66
2022-10-05T23:38:47.245Z,51.54
2022-10-05T23:41:17.311Z,51.74
2022-10-05T23:43:45.612Z,51.54
2022-10-05T23:46:14.453Z,51.58
2022-10-05T23:48:42.978Z,51.54
2022-10-05T23:51:12.841Z,51.37
2022-10-05T23:53:43.947Z,51.77
2022-10-05T23:56:12.367Z,51.85
2022-10-05T23:58:42.193Z,51.77
